Terminal Aerodrome Forecast
Issued by NWS Denver/Boulder, CO

Home | Current Version | Previous Version | Text Only | Print | Product List | Glossary On
Versions: 1 2 3 4 5 6 7 8 9 10 11 12 13 14 15 16 17 18 19 20 21 22 23 24 25 26 27 28 29 30 31 32
000
FTUS45 KBOU 161739
TAFDEN
TAF
KDEN 161739Z 1618/1724 03010KT P6SM BKN150
     FM170200 07008KT P6SM FEW080 BKN140
     FM170500 08007KT P6SM SCT014 BKN140
     FM170700 08007KT P6SM SCT008 BKN014
     FM170900 10006KT 4SM BR BKN005 OVC008 PROB30 1709/1713 1SM
      -FZDZ BR OVC003
     FM171500 16007KT P6SM SCT008 OVC014
      TEMPO 1715/1717 BKN008
     FM171900 12007KT P6SM SCT025 BKN140=

USA.gov is the U.S. government's official web portal to all federal, state and local government web resources and services.